createdAt,value
2022-08-25T00:01:14.184Z,5.83
2022-08-25T00:05:23.180Z,7.33
2022-08-25T00:09:33.395Z,7.57
2022-08-25T00:13:45.039Z,6.70
2022-08-25T00:17:53.835Z,7.70
2022-08-25T00:22:03.840Z,17.13
2022-08-25T00:26:13.066Z,5.73
2022-08-25T00:30:21.810Z,6.13
2022-08-25T00:34:34.320Z,6.37
2022-08-25T00:38:44.941Z,7.90
2022-08-25T00:42:54.419Z,6.20
2022-08-25T00:47:04.746Z,5.03
2022-08-25T00:51:16.467Z,8.17
2022-08-25T00:55:44.464Z,6.60
2022-08-25T00:59:53.234Z,7.90
2022-08-25T01:04:01.918Z,6.67
2022-08-25T01:08:11.567Z,5.95
2022-08-25T01:12:22.861Z,6.05
2022-08-25T01:16:31.541Z,6.10
2022-08-25T01:20:40.119Z,6.20
2022-08-25T01:25:04.004Z,5.50
2022-08-25T01:29:21.807Z,5.70
2022-08-25T01:33:49.685Z,6.40
2022-08-25T01:37:58.348Z,8.00
2022-08-25T01:42:31.986Z,5.90
2022-08-25T01:46:40.624Z,6.70
2022-08-25T01:50:49.239Z,5.67
2022-08-25T01:54:57.918Z,5.67
2022-08-25T01:59:06.623Z,8.47
2022-08-25T02:03:36.018Z,5.73
2022-08-25T02:07:45.627Z,6.47
2022-08-25T02:11:54.321Z,9.47
2022-08-25T02:16:03.062Z,6.93
2022-08-25T02:20:12.185Z,6.45
2022-08-25T02:24:20.942Z,5.80
2022-08-25T02:28:29.558Z,7.40
2022-08-25T02:32:39.332Z,5.27
2022-08-25T02:36:48.019Z,5.77
2022-08-25T02:40:58.345Z,6.73
2022-08-25T02:45:07.800Z,6.30
2022-08-25T02:49:16.601Z,5.43
2022-08-25T02:53:25.214Z,6.17
2022-08-25T02:57:33.957Z,6.10
2022-08-25T03:01:42.658Z,6.33
2022-08-25T03:05:51.280Z,6.43
2022-08-25T03:09:59.971Z,6.10
2022-08-25T03:14:10.902Z,5.80
2022-08-25T03:18:19.507Z,6.03
2022-08-25T03:22:28.112Z,7.70
2022-08-25T03:26:56.367Z,5.85
2022-08-25T03:31:05.444Z,7.33
2022-08-25T03:35:14.404Z,5.90
2022-08-25T03:39:25.652Z,6.00
2022-08-25T03:43:34.259Z,8.77
2022-08-25T03:48:02.281Z,6.50
2022-08-25T03:52:10.952Z,6.27
2022-08-25T03:56:20.119Z,7.83
2022-08-25T04:00:28.739Z,5.20
2022-08-25T04:04:37.536Z,5.17
2022-08-25T04:08:46.232Z,7.33
2022-08-25T04:12:56.007Z,11.10
2022-08-25T04:17:05.459Z,7.50
2022-08-25T04:21:15.002Z,8.47
2022-08-25T04:25:23.625Z,11.03
2022-08-25T04:29:32.674Z,8.97
2022-08-25T04:33:42.441Z,7.60
2022-08-25T04:37:51.149Z,8.03
2022-08-25T04:42:00.643Z,7.33
2022-08-25T04:46:12.738Z,12.00
2022-08-25T04:50:21.352Z,7.90
2022-08-25T04:54:30.020Z,12.43
2022-08-25T04:58:41.633Z,12.00
2022-08-25T05:02:50.418Z,11.07
2022-08-25T05:06:59.360Z,11.17
2022-08-25T05:11:09.201Z,7.45
2022-08-25T05:15:36.227Z,9.50
2022-08-25T05:19:45.003Z,7.20
2022-08-25T05:23:57.630Z,8.67
2022-08-25T05:28:06.856Z,10.30
2022-08-25T05:32:15.616Z,8.80
2022-08-25T05:36:45.233Z,9.90
2022-08-25T05:41:03.031Z,6.97
2022-08-25T05:45:15.840Z,9.50
2022-08-25T05:49:22.697Z,7.63
2022-08-25T05:53:34.090Z,6.20
2022-08-25T05:57:43.138Z,8.10
2022-08-25T06:02:10.129Z,9.57
2022-08-25T06:06:18.806Z,10.10
2022-08-25T06:10:28.264Z,10.70
2022-08-25T06:14:37.876Z,18.33
2022-08-25T06:18:46.726Z,12.50
2022-08-25T06:22:55.772Z,8.07
2022-08-25T06:27:04.692Z,13.93
2022-08-25T06:31:13.352Z,7.77
2022-08-25T06:35:22.951Z,9.90
2022-08-25T06:39:31.667Z,6.83
2022-08-25T06:43:48.001Z,8.00
2022-08-25T06:47:54.735Z,12.13
2022-08-25T06:52:06.695Z,13.10
2022-08-25T06:56:15.942Z,15.13
2022-08-25T07:00:30.609Z,13.10
2022-08-25T07:04:36.454Z,9.70
2022-08-25T07:08:45.425Z,11.50
2022-08-25T07:12:54.042Z,8.03
2022-08-25T07:17:02.655Z,7.63
2022-08-25T07:21:14.933Z,7.93
2022-08-25T07:25:23.878Z,7.60
2022-08-25T07:29:34.077Z,6.43
2022-08-25T07:33:44.749Z,6.87
2022-08-25T07:37:59.747Z,9.07
2022-08-25T07:42:11.929Z,7.77
2022-08-25T07:46:20.195Z,6.53
2022-08-25T07:50:31.253Z,7.47
2022-08-25T07:54:39.853Z,6.37
2022-08-25T07:58:48.999Z,5.80
2022-08-25T08:02:59.137Z,7.23
2022-08-25T08:07:12.095Z,6.93
2022-08-25T08:11:20.871Z,6.03
2022-08-25T08:15:32.397Z,6.07
2022-08-25T08:19:44.852Z,6.27
2022-08-25T08:23:58.153Z,5.30
2022-08-25T08:28:03.183Z,6.35
2022-08-25T08:32:13.500Z,7.77
2022-08-25T08:36:25.476Z,5.35
2022-08-25T08:40:36.222Z,7.13
2022-08-25T08:44:49.647Z,5.90
2022-08-25T08:49:04.346Z,5.93
2022-08-25T08:53:24.663Z,6.70
2022-08-25T08:57:36.425Z,7.07
2022-08-25T09:01:54.324Z,7.30
2022-08-25T09:06:06.808Z,10.03
2022-08-25T09:10:17.477Z,9.30
2022-08-25T09:14:53.886Z,5.83
2022-08-25T09:19:03.100Z,5.67
2022-08-25T09:23:37.502Z,7.77
2022-08-25T09:28:04.415Z,6.22
2022-08-25T09:32:15.133Z,5.70
2022-08-25T09:36:24.771Z,8.23
2022-08-25T09:40:46.217Z,6.37
2022-08-25T09:44:55.216Z,7.77
2022-08-25T09:49:16.480Z,5.30
2022-08-25T09:53:25.157Z,5.37
2022-08-25T09:57:45.416Z,6.60
2022-08-25T10:01:58.249Z,10.93
2022-08-25T10:06:13.180Z,6.20
2022-08-25T10:10:27.435Z,8.23
2022-08-25T10:14:44.293Z,5.87
2022-08-25T10:19:15.625Z,5.30
2022-08-25T10:23:27.290Z,4.23
2022-08-25T10:27:56.731Z,6.80
2022-08-25T10:32:14.701Z,5.07
2022-08-25T10:36:26.371Z,5.27
2022-08-25T10:40:53.762Z,5.67
2022-08-25T10:45:44.232Z,6.63
2022-08-25T10:49:56.246Z,6.13
2022-08-25T10:54:21.048Z,6.20
2022-08-25T10:59:07.196Z,4.70
2022-08-25T11:03:21.372Z,5.53
2022-08-25T11:07:43.646Z,5.60
2022-08-25T11:12:07.249Z,5.70
2022-08-25T11:16:25.497Z,6.30
2022-08-25T11:20:37.159Z,6.73
2022-08-25T11:24:49.649Z,5.00
2022-08-25T11:29:11.996Z,6.03
2022-08-25T11:33:23.237Z,4.73
2022-08-25T11:37:33.894Z,5.43
2022-08-25T11:41:45.678Z,6.53
2022-08-25T11:46:23.091Z,12.70
2022-08-25T11:50:36.668Z,5.20
2022-08-25T11:54:46.299Z,7.07
2022-08-25T11:59:14.327Z,6.30
2022-08-25T12:03:45.092Z,4.83
2022-08-25T12:08:14.876Z,5.33
2022-08-25T12:12:32.657Z,4.30
2022-08-25T12:16:44.618Z,4.67
2022-08-25T12:20:59.972Z,4.17
2022-08-25T12:25:23.645Z,5.27
2022-08-25T12:29:44.633Z,5.40
2022-08-25T12:34:05.200Z,4.73
2022-08-25T12:38:22.259Z,5.07
2022-08-25T12:42:39.804Z,4.13
2022-08-25T12:46:49.987Z,3.73
2022-08-25T12:51:13.733Z,4.60
2022-08-25T12:55:25.159Z,4.17
2022-08-25T12:59:39.787Z,4.50
2022-08-25T13:04:25.049Z,4.37
2022-08-25T13:09:00.959Z,3.80
2022-08-25T13:13:37.793Z,4.00
2022-08-25T13:17:47.209Z,5.43
2022-08-25T13:21:59.057Z,4.23
2022-08-25T13:26:08.398Z,3.77
2022-08-25T13:30:27.410Z,3.80
2022-08-25T13:34:42.882Z,4.10
2022-08-25T13:38:52.058Z,4.20
2022-08-25T13:43:03.570Z,3.53
2022-08-25T13:47:16.594Z,5.07
2022-08-25T13:51:49.194Z,4.90
2022-08-25T13:56:00.643Z,3.97
2022-08-25T14:00:11.909Z,3.70
2022-08-25T14:04:51.168Z,3.50
2022-08-25T14:09:04.194Z,3.33
2022-08-25T14:13:18.924Z,3.80
2022-08-25T14:17:39.873Z,3.50
2022-08-25T14:21:40.959Z,4.10
2022-08-25T14:25:55.447Z,3.90
2022-08-25T14:30:04.397Z,3.70
2022-08-25T14:34:18.872Z,4.40
2022-08-25T14:38:29.428Z,6.90
2022-08-25T14:42:38.906Z,3.80
2022-08-25T14:46:57.206Z,3.60
2022-08-25T14:51:07.330Z,4.53
2022-08-25T14:55:17.422Z,3.73
2022-08-25T14:59:26.491Z,4.50
2022-08-25T15:03:38.929Z,4.07
2022-08-25T15:08:05.770Z,4.40
2022-08-25T15:12:26.019Z,4.00
2022-08-25T15:16:35.188Z,4.17
2022-08-25T15:20:44.345Z,4.67
2022-08-25T15:24:53.026Z,4.47
2022-08-25T15:29:01.811Z,4.43
2022-08-25T15:33:10.780Z,3.97
2022-08-25T15:37:19.538Z,3.40
2022-08-25T15:41:29.454Z,3.80
2022-08-25T15:45:38.359Z,3.97
2022-08-25T15:49:47.265Z,4.20
2022-08-25T15:53:57.012Z,3.93
2022-08-25T15:58:06.590Z,4.13
2022-08-25T16:02:18.001Z,4.03
2022-08-25T16:06:27.895Z,3.70
2022-08-25T16:10:42.198Z,8.43
2022-08-25T16:14:51.182Z,4.30
2022-08-25T16:19:01.476Z,4.30
2022-08-25T16:23:10.282Z,6.27
2022-08-25T16:27:19.983Z,4.83
2022-08-25T16:31:28.931Z,4.50
2022-08-25T16:35:37.582Z,4.17
2022-08-25T16:39:49.396Z,3.80
2022-08-25T16:43:58.482Z,4.33
2022-08-25T16:48:07.597Z,4.10
2022-08-25T16:52:35.647Z,4.30
2022-08-25T16:56:44.475Z,4.47
2022-08-25T17:00:53.100Z,4.00
2022-08-25T17:05:03.207Z,4.10
2022-08-25T17:09:17.367Z,3.30
2022-08-25T17:13:25.453Z,4.50
2022-08-25T17:17:36.274Z,5.77
2022-08-25T17:21:50.018Z,4.43
2022-08-25T17:25:58.755Z,6.13
2022-08-25T17:30:08.797Z,3.57
2022-08-25T17:34:23.088Z,4.20
2022-08-25T17:38:33.225Z,5.10
2022-08-25T17:42:42.001Z,3.73
2022-08-25T17:46:50.855Z,5.90
2022-08-25T17:51:01.442Z,4.43
2022-08-25T17:55:10.981Z,3.40
2022-08-25T17:59:21.073Z,3.60
2022-08-25T18:03:30.918Z,4.20
2022-08-25T18:07:39.679Z,6.40
2022-08-25T18:11:50.431Z,4.30
2022-08-25T18:15:59.866Z,5.80
2022-08-25T18:20:11.373Z,5.37
2022-08-25T18:24:20.491Z,4.60
2022-08-25T18:28:32.137Z,4.10
2022-08-25T18:32:40.777Z,4.70
2022-08-25T18:36:50.013Z,3.40
2022-08-25T18:41:01.982Z,3.70
2022-08-25T18:45:12.330Z,3.60
2022-08-25T18:49:21.407Z,3.95
2022-08-25T18:53:37.091Z,4.60
2022-08-25T18:57:43.467Z,4.47
2022-08-25T19:01:53.596Z,3.60
2022-08-25T19:06:02.724Z,4.00
2022-08-25T19:10:11.659Z,3.90
2022-08-25T19:14:20.958Z,4.27
2022-08-25T19:18:30.253Z,5.00
2022-08-25T19:22:41.957Z,3.93
2022-08-25T19:26:54.162Z,3.97
2022-08-25T19:31:01.475Z,4.43
2022-08-25T19:35:30.443Z,5.33
2022-08-25T19:39:39.062Z,5.65
2022-08-25T19:43:56.469Z,4.50
2022-08-25T19:48:01.775Z,6.23
2022-08-25T19:52:12.273Z,8.57
2022-08-25T19:56:21.443Z,4.60
2022-08-25T20:00:33.915Z,5.47
2022-08-25T20:04:49.745Z,5.65
2022-08-25T20:09:00.299Z,5.60
2022-08-25T20:13:08.635Z,4.40
2022-08-25T20:17:24.685Z,5.10
2022-08-25T20:21:30.877Z,4.60
2022-08-25T20:25:39.593Z,5.20
2022-08-25T20:29:50.745Z,4.80
2022-08-25T20:34:02.922Z,5.20
2022-08-25T20:38:10.486Z,5.00
2022-08-25T20:42:19.908Z,5.30
2022-08-25T20:46:28.559Z,4.60
2022-08-25T20:50:39.924Z,5.60
2022-08-25T20:55:00.675Z,5.80
2022-08-25T20:59:10.428Z,6.10
2022-08-25T21:03:20.270Z,6.67
2022-08-25T21:07:28.943Z,6.25
2022-08-25T21:11:39.898Z,6.25
2022-08-25T21:15:48.889Z,14.50
2022-08-25T21:19:57.506Z,5.80
2022-08-25T21:24:09.901Z,10.03
2022-08-25T21:28:17.710Z,5.80
2022-08-25T21:32:27.823Z,6.07
2022-08-25T21:36:36.433Z,6.30
2022-08-25T21:40:45.220Z,6.57
2022-08-25T21:44:54.038Z,6.13
2022-08-25T21:49:06.150Z,9.43
2022-08-25T21:53:14.043Z,10.13
2022-08-25T21:57:23.679Z,11.10
2022-08-25T22:01:32.537Z,6.97
2022-08-25T22:05:41.671Z,7.80
2022-08-25T22:09:51.874Z,6.73
2022-08-25T22:14:02.413Z,8.60
2022-08-25T22:18:11.034Z,7.03
2022-08-25T22:22:21.019Z,10.10
2022-08-25T22:26:31.607Z,6.97
2022-08-25T22:30:40.543Z,7.10
2022-08-25T22:34:49.584Z,12.87
2022-08-25T22:38:59.318Z,9.90
2022-08-25T22:43:10.853Z,8.03
2022-08-25T22:47:19.677Z,6.90
2022-08-25T22:51:33.314Z,7.00
2022-08-25T22:55:44.161Z,7.33
2022-08-25T22:59:55.575Z,6.63
2022-08-25T23:04:06.217Z,6.23
2022-08-25T23:08:15.505Z,10.30
2022-08-25T23:12:26.202Z,9.00
2022-08-25T23:16:56.022Z,9.60
2022-08-25T23:21:24.145Z,7.50
2022-08-25T23:25:32.752Z,5.90
2022-08-25T23:29:43.361Z,5.70
2022-08-25T23:33:52.413Z,7.23
2022-08-25T23:38:20.333Z,10.30
2022-08-25T23:42:29.015Z,11.47
2022-08-25T23:46:37.628Z,10.37
2022-08-25T23:50:48.955Z,13.50
2022-08-25T23:54:59.298Z,18.93
2022-08-25T23:59:09.324Z,18.03
